Terminal Aerodrome Forecast
Issued by NWS

Home | Current Version | Previous Version | Text Only | Print | Product List | Glossary On
Versions: 1 2 3 4 5 6 7 8 9 10 11 12 13 14 15
000
FTUS44 KLIX 290538
TAFMSY
TAF
KMSY 290538Z 2906/3006 14008KT P6SM FEW250
     FM290700 16005KT P6SM SCT250
     FM291500 11004KT P6SM SCT030 BKN250 PROB30 2918/2923 VRB15KT
      2SM TSRA BKN030CB
     FM292300 13005KT P6SM SCT100=

USA.gov is the U.S. government's official web portal to all federal, state and local government web resources and services.